Karditsa, Greece
Current Conditions -  °F | °C
As of 10:50 AM on Sunday 26 Oct 2014 (Local Time) from LGLR Reporting Station
Moderate Rain Moderate Rain  
Wind Chill:   Ceiling: 3000
Heat Index:   Visibility: 6mi
Dew Point:   Wind: 5mph
Humidity: 87%   Direction: 360°N
Pressure: 30.15"   Gusts: NA
Location:  39.37°N, 21.92°E
Report Text: LGLR 260750Z 36004KT 9999 RA FEW010 OVC030 09/07 Q1021 BLU
Loading
Personal Weather Stations






























Interactive Weather Map
Tropical Storm Tracking
New forecast layout! Learn more

10-Day Weather Forecast

Advertisements
Track Severe Weather on mobile